createdAt,value
2019-05-29T00:01:55.991Z,15.70
2019-05-29T00:06:10.250Z,15.60
2019-05-29T00:10:24.237Z,15.60
2019-05-29T00:14:38.175Z,15.60
2019-05-29T00:18:52.127Z,15.60
2019-05-29T00:23:06.504Z,15.50
2019-05-29T00:27:20.385Z,15.50
2019-05-29T00:31:35.163Z,15.50
2019-05-29T00:35:48.636Z,15.50
2019-05-29T00:40:04.219Z,15.50
2019-05-29T00:44:31.580Z,15.50
2019-05-29T00:48:34.543Z,15.60
2019-05-29T00:52:48.412Z,15.50
2019-05-29T00:57:01.972Z,15.60
2019-05-29T01:01:15.542Z,15.60
2019-05-29T01:05:29.523Z,15.60
2019-05-29T01:09:43.827Z,15.60
2019-05-29T01:13:57.841Z,15.60
2019-05-29T01:18:12.101Z,15.60
2019-05-29T01:22:25.956Z,15.60
2019-05-29T01:26:40.245Z,15.60
2019-05-29T01:30:53.826Z,15.50
2019-05-29T01:35:08.710Z,15.50
2019-05-29T01:39:23.514Z,15.40
2019-05-29T01:43:37.477Z,15.30
2019-05-29T01:47:51.577Z,15.20
2019-05-29T01:52:05.107Z,15.10
2019-05-29T01:56:19.818Z,15.00
2019-05-29T02:00:33.782Z,14.90
2019-05-29T02:04:47.460Z,14.80
2019-05-29T02:09:01.459Z,14.80
2019-05-29T02:13:19.327Z,14.70
2019-05-29T02:17:33.422Z,14.70
2019-05-29T02:21:47.547Z,14.70
2019-05-29T02:26:01.467Z,14.70
2019-05-29T02:30:17.873Z,14.60
2019-05-29T02:34:31.327Z,14.60
2019-05-29T02:38:45.083Z,14.60
2019-05-29T02:42:59.329Z,14.60
2019-05-29T02:47:13.087Z,14.50
2019-05-29T02:51:28.303Z,14.50
2019-05-29T02:55:41.869Z,14.50
2019-05-29T02:59:55.662Z,14.40
2019-05-29T03:04:11.340Z,14.40
2019-05-29T03:08:26.951Z,14.40
2019-05-29T03:12:40.585Z,14.30
2019-05-29T03:16:54.650Z,14.30
2019-05-29T03:21:08.213Z,14.30
2019-05-29T03:25:21.966Z,14.30
2019-05-29T03:29:35.537Z,14.30
2019-05-29T03:33:50.843Z,14.30
2019-05-29T03:38:04.616Z,14.30
2019-05-29T03:42:18.403Z,14.30
2019-05-29T03:46:41.069Z,14.30
2019-05-29T03:50:47.611Z,14.30
2019-05-29T03:55:01.011Z,14.40
2019-05-29T03:59:14.855Z,14.40
2019-05-29T04:03:28.973Z,14.40
2019-05-29T04:07:42.713Z,14.50
2019-05-29T04:11:56.434Z,14.50
2019-05-29T04:16:10.599Z,14.50
2019-05-29T04:20:24.485Z,14.50
2019-05-29T04:24:39.830Z,14.50
2019-05-29T04:28:53.677Z,14.60
2019-05-29T04:33:07.230Z,14.60
2019-05-29T04:37:21.616Z,14.60
2019-05-29T04:41:36.854Z,14.60
2019-05-29T04:45:50.475Z,14.60
2019-05-29T04:50:04.545Z,14.60
2019-05-29T04:54:17.995Z,14.60
2019-05-29T04:58:32.784Z,14.70
2019-05-29T05:02:46.867Z,14.70
2019-05-29T05:07:00.681Z,14.70
2019-05-29T05:11:14.647Z,14.70
2019-05-29T05:15:29.725Z,14.90
2019-05-29T05:19:43.377Z,14.80
2019-05-29T05:23:57.077Z,14.80
2019-05-29T05:28:10.754Z,14.80
2019-05-29T05:32:24.190Z,14.80
2019-05-29T05:36:38.874Z,14.80
2019-05-29T05:40:52.617Z,14.90
2019-05-29T05:45:06.847Z,14.90
2019-05-29T05:49:20.833Z,14.90
2019-05-29T05:53:35.401Z,15.00
2019-05-29T05:57:49.380Z,14.90
2019-05-29T06:02:02.922Z,14.90
2019-05-29T06:06:16.761Z,14.90
2019-05-29T06:10:30.614Z,14.90
2019-05-29T06:14:44.475Z,14.80
2019-05-29T06:18:57.871Z,14.80
2019-05-29T06:23:11.456Z,14.80
2019-05-29T06:27:25.389Z,14.90
2019-05-29T06:31:39.399Z,15.00
2019-05-29T06:35:53.064Z,15.00
2019-05-29T06:40:07.607Z,15.00
2019-05-29T06:44:21.441Z,15.00
2019-05-29T06:48:48.821Z,15.00
2019-05-29T06:52:50.821Z,15.00
2019-05-29T06:57:04.500Z,15.10
2019-05-29T07:01:18.477Z,15.20
2019-05-29T07:05:32.008Z,15.30
2019-05-29T07:09:45.542Z,15.50
2019-05-29T07:13:59.089Z,15.80
2019-05-29T07:18:12.844Z,15.70
2019-05-29T07:22:27.021Z,15.80
2019-05-29T07:26:41.440Z,15.90
2019-05-29T07:31:01.792Z,15.90
2019-05-29T07:35:12.519Z,16.00
2019-05-29T07:39:27.301Z,16.10
2019-05-29T07:43:41.787Z,16.20
2019-05-29T07:47:56.075Z,16.20
2019-05-29T07:52:10.121Z,16.40
2019-05-29T07:56:29.497Z,16.40
2019-05-29T08:01:05.034Z,16.50
2019-05-29T08:05:01.595Z,16.40
2019-05-29T08:09:15.603Z,16.40
2019-05-29T08:13:29.306Z,16.60
2019-05-29T08:17:44.088Z,16.70
2019-05-29T08:21:57.839Z,16.90
2019-05-29T08:26:13.651Z,17.10
2019-05-29T08:30:27.448Z,17.40
2019-05-29T08:34:41.108Z,17.70
2019-05-29T08:38:55.011Z,18.10
2019-05-29T08:43:08.656Z,18.50
2019-05-29T08:47:22.359Z,18.80
2019-05-29T08:51:36.153Z,19.10
2019-05-29T08:55:52.730Z,19.30
2019-05-29T09:00:09.105Z,19.30
2019-05-29T09:04:24.351Z,18.90
2019-05-29T09:08:37.922Z,19.20
2019-05-29T09:13:02.200Z,19.20
2019-05-29T09:17:07.067Z,19.30
2019-05-29T09:21:21.028Z,19.50
2019-05-29T09:25:34.995Z,19.60
2019-05-29T09:29:48.932Z,19.80
2019-05-29T09:34:02.407Z,20.00
2019-05-29T09:38:16.869Z,20.00
2019-05-29T09:42:30.899Z,20.30
2019-05-29T09:46:44.585Z,20.20
2019-05-29T09:50:58.046Z,20.20
2019-05-29T09:55:12.371Z,20.30
2019-05-29T09:59:29.157Z,20.30
2019-05-29T10:03:44.580Z,20.30
2019-05-29T10:07:59.643Z,20.40
2019-05-29T10:12:14.894Z,20.60
2019-05-29T10:16:29.736Z,20.80
2019-05-29T10:20:43.295Z,21.10
2019-05-29T10:24:58.013Z,21.40
2019-05-29T10:29:12.530Z,21.60
2019-05-29T10:33:26.127Z,21.50
2019-05-29T10:37:39.875Z,21.40
2019-05-29T10:41:54.636Z,21.10
2019-05-29T10:46:08.522Z,20.90
2019-05-29T10:50:22.271Z,20.80
2019-05-29T10:54:39.126Z,20.70
2019-05-29T10:58:56.405Z,20.70
2019-05-29T11:03:08.107Z,20.50
2019-05-29T11:07:21.788Z,20.30
2019-05-29T11:11:35.491Z,20.30
2019-05-29T11:15:49.325Z,20.40
2019-05-29T11:20:05.798Z,20.50
2019-05-29T11:24:19.645Z,20.70
2019-05-29T11:28:33.702Z,20.90
2019-05-29T11:32:49.885Z,21.00
2019-05-29T11:37:02.829Z,21.00
2019-05-29T11:41:26.019Z,21.00
2019-05-29T11:45:35.367Z,21.10
2019-05-29T11:49:48.331Z,21.30
2019-05-29T11:54:02.502Z,21.40
2019-05-29T11:58:30.724Z,21.50
2019-05-29T12:02:32.701Z,21.70
2019-05-29T12:06:46.434Z,21.90
2019-05-29T12:11:01.496Z,22.20
2019-05-29T12:15:18.209Z,22.30
2019-05-29T12:19:31.062Z,22.20
2019-05-29T12:23:45.106Z,21.90
2019-05-29T12:27:59.363Z,21.60
2019-05-29T12:32:13.428Z,21.30
2019-05-29T12:36:27.338Z,21.00
2019-05-29T12:40:41.413Z,20.80
2019-05-29T12:44:55.459Z,20.50
2019-05-29T12:49:09.359Z,20.20
2019-05-29T12:53:30.190Z,20.00
2019-05-29T12:57:38.572Z,19.80
2019-05-29T13:01:52.117Z,19.60
2019-05-29T13:06:05.787Z,19.50
2019-05-29T13:10:30.596Z,19.40
2019-05-29T13:14:37.707Z,19.30
2019-05-29T13:18:51.269Z,19.40
2019-05-29T13:23:07.238Z,19.40
2019-05-29T13:27:21.627Z,19.40
2019-05-29T13:31:36.359Z,19.60
2019-05-29T13:35:50.193Z,20.00
2019-05-29T13:40:07.061Z,20.50
2019-05-29T13:44:20.211Z,21.10
2019-05-29T13:48:33.754Z,21.50
2019-05-29T13:52:47.443Z,21.80
2019-05-29T13:57:02.498Z,22.10
2019-05-29T14:01:16.887Z,22.30
2019-05-29T14:05:30.996Z,22.40
2019-05-29T14:09:45.477Z,22.40
2019-05-29T14:14:01.714Z,22.40
2019-05-29T14:18:19.117Z,22.30
2019-05-29T14:22:32.739Z,22.20
2019-05-29T14:26:46.757Z,22.00
2019-05-29T14:31:03.959Z,21.70
2019-05-29T14:35:17.879Z,21.50
2019-05-29T14:39:33.525Z,21.50
2019-05-29T14:43:47.563Z,21.50
2019-05-29T14:48:02.167Z,21.50
2019-05-29T14:52:15.943Z,21.40
2019-05-29T14:56:29.491Z,21.40
2019-05-29T15:00:43.593Z,21.20
2019-05-29T15:04:57.955Z,21.10
2019-05-29T15:09:11.753Z,21.00
2019-05-29T15:13:25.497Z,21.00
2019-05-29T15:17:39.408Z,21.00
2019-05-29T15:21:53.086Z,21.10
2019-05-29T15:26:07.493Z,21.00
2019-05-29T15:30:23.502Z,21.10
2019-05-29T15:34:37.030Z,21.10
2019-05-29T15:38:51.761Z,21.10
2019-05-29T15:43:06.513Z,21.10
2019-05-29T15:47:21.383Z,21.20
2019-05-29T15:51:35.021Z,21.10
2019-05-29T15:55:48.577Z,21.10
2019-05-29T16:00:02.285Z,21.10
2019-05-29T16:04:18.054Z,21.20
2019-05-29T16:08:31.968Z,21.20
2019-05-29T16:12:45.844Z,21.20
2019-05-29T16:17:00.709Z,21.10
2019-05-29T16:21:15.029Z,21.00
2019-05-29T16:25:39.771Z,21.00
2019-05-29T16:29:45.059Z,20.90
2019-05-29T16:33:58.766Z,20.80
2019-05-29T16:38:14.098Z,20.60
2019-05-29T16:42:28.445Z,20.40
2019-05-29T16:46:42.503Z,20.20
2019-05-29T16:50:57.491Z,19.80
2019-05-29T16:55:13.020Z,19.80
2019-05-29T16:59:29.773Z,19.60
2019-05-29T17:03:42.383Z,19.30
2019-05-29T17:07:55.987Z,19.20
2019-05-29T17:12:10.127Z,19.00
2019-05-29T17:16:24.807Z,18.90
2019-05-29T17:20:41.417Z,18.70
2019-05-29T17:24:58.007Z,18.60
2019-05-29T17:29:12.115Z,18.50
2019-05-29T17:33:25.764Z,18.40
2019-05-29T17:37:40.019Z,18.30
2019-05-29T17:41:53.915Z,18.20
2019-05-29T17:46:07.778Z,18.20
2019-05-29T17:50:24.555Z,18.10
2019-05-29T17:54:38.155Z,18.00
2019-05-29T17:58:51.843Z,18.00
2019-05-29T18:03:07.127Z,17.90
2019-05-29T18:07:20.724Z,17.90
2019-05-29T18:11:34.283Z,17.90
2019-05-29T18:15:48.279Z,17.80
2019-05-29T18:20:02.101Z,17.80
2019-05-29T18:24:17.508Z,17.80
2019-05-29T18:28:31.547Z,17.80
2019-05-29T18:32:45.525Z,17.80
2019-05-29T18:37:00.140Z,17.70
2019-05-29T18:41:14.402Z,17.70
2019-05-29T18:45:29.350Z,17.60
2019-05-29T18:49:44.495Z,17.60
2019-05-29T18:53:58.412Z,17.60
2019-05-29T18:58:12.646Z,17.50
2019-05-29T19:02:27.513Z,17.40
2019-05-29T19:06:44.916Z,17.40
2019-05-29T19:11:45.943Z,17.30
2019-05-29T19:16:14.489Z,17.20
2019-05-29T19:20:39.535Z,17.10
2019-05-29T19:25:09.954Z,17.00
2019-05-29T19:29:33.702Z,16.90
2019-05-29T19:33:49.814Z,16.70
2019-05-29T19:38:04.374Z,16.60
2019-05-29T19:42:19.245Z,16.60
2019-05-29T19:46:52.273Z,16.50
2019-05-29T19:50:52.916Z,16.40
2019-05-29T19:55:08.681Z,16.30
2019-05-29T19:59:25.837Z,16.20
2019-05-29T20:03:40.478Z,16.20
2019-05-29T20:07:56.286Z,16.10
2019-05-29T20:12:10.511Z,16.00
2019-05-29T20:16:24.548Z,16.00
2019-05-29T20:20:38.816Z,15.90
2019-05-29T20:24:53.237Z,15.90
2019-05-29T20:29:07.334Z,15.80
2019-05-29T20:33:22.323Z,15.80
2019-05-29T20:37:36.518Z,15.70
2019-05-29T20:41:51.445Z,15.70
2019-05-29T20:46:06.089Z,15.60
2019-05-29T20:50:20.400Z,15.60
2019-05-29T20:54:35.951Z,15.50
2019-05-29T20:58:51.511Z,15.50
2019-05-29T21:03:07.292Z,15.50
2019-05-29T21:07:21.130Z,15.40
2019-05-29T21:11:35.327Z,15.40
2019-05-29T21:15:51.562Z,15.30
2019-05-29T21:20:09.400Z,15.30
2019-05-29T21:24:23.713Z,15.20
2019-05-29T21:28:44.491Z,15.20
2019-05-29T21:32:53.609Z,15.20
2019-05-29T21:37:07.401Z,15.20
2019-05-29T21:41:21.543Z,15.10
2019-05-29T21:45:36.783Z,15.00
2019-05-29T21:49:50.747Z,15.00
2019-05-29T21:54:05.107Z,14.90
2019-05-29T21:58:18.742Z,14.90
2019-05-29T22:02:32.545Z,14.80
2019-05-29T22:06:46.871Z,14.80
2019-05-29T22:11:01.770Z,14.70
2019-05-29T22:15:16.398Z,14.70
2019-05-29T22:19:30.957Z,14.60
2019-05-29T22:23:47.155Z,14.60
2019-05-29T23:41:59.318Z,13.70
2019-05-29T23:46:13.476Z,13.70
2019-05-29T23:50:27.858Z,13.70
2019-05-29T23:54:42.226Z,13.70
2019-05-29T23:58:56.115Z,13.60
